createdAt,value
2022-08-30T00:00:44.107Z,16.90
2022-08-30T00:03:19.096Z,16.90
2022-08-30T00:05:52.507Z,16.90
2022-08-30T00:08:29.783Z,16.90
2022-08-30T00:11:04.917Z,16.90
2022-08-30T00:13:38.583Z,16.90
2022-08-30T00:16:12.385Z,16.80
2022-08-30T00:18:47.743Z,16.70
2022-08-30T00:21:21.392Z,16.70
2022-08-30T00:23:54.759Z,16.60
2022-08-30T00:26:27.869Z,16.50
2022-08-30T00:29:00.935Z,16.40
2022-08-30T00:31:34.121Z,16.40
2022-08-30T00:34:08.634Z,16.40
2022-08-30T00:36:41.686Z,16.40
2022-08-30T00:39:14.794Z,16.40
2022-08-30T00:41:48.649Z,16.40
2022-08-30T00:44:21.774Z,16.40
2022-08-30T00:46:54.862Z,16.40
2022-08-30T00:49:30.653Z,16.30
2022-08-30T00:52:06.562Z,16.30
2022-08-30T00:54:43.337Z,16.30
2022-08-30T00:57:16.708Z,16.30
2022-08-30T00:59:51.318Z,16.30
2022-08-30T01:02:24.737Z,16.30
2022-08-30T01:04:59.733Z,16.20
2022-08-30T01:07:34.745Z,16.30
2022-08-30T01:10:11.462Z,16.30
2022-08-30T01:12:46.571Z,16.30
2022-08-30T01:15:19.901Z,16.30
2022-08-30T01:17:54.369Z,16.30
2022-08-30T01:20:37.285Z,16.20
2022-08-30T01:23:16.706Z,16.30
2022-08-30T01:25:51.747Z,16.30
2022-08-30T01:28:28.533Z,16.20
2022-08-30T01:31:02.677Z,16.20
2022-08-30T01:33:38.188Z,16.20
2022-08-30T01:36:15.438Z,16.10
2022-08-30T01:38:54.280Z,16.00
2022-08-30T01:41:31.831Z,16.00
2022-08-30T01:44:10.221Z,15.90
2022-08-30T01:46:47.783Z,15.80
2022-08-30T01:49:27.718Z,15.80
2022-08-30T01:52:01.582Z,15.80
2022-08-30T01:54:41.149Z,15.70
2022-08-30T01:57:19.343Z,15.70
2022-08-30T01:59:52.439Z,15.80
2022-08-30T02:02:29.874Z,15.80
2022-08-30T02:05:03.110Z,15.70
2022-08-30T02:07:36.261Z,15.70
2022-08-30T02:10:11.561Z,15.70
2022-08-30T02:12:44.666Z,15.70
2022-08-30T02:15:18.369Z,15.70
2022-08-30T02:17:51.475Z,15.60
2022-08-30T02:20:24.835Z,15.60
2022-08-30T02:23:01.179Z,15.60
2022-08-30T02:25:36.137Z,15.60
2022-08-30T02:28:10.003Z,15.60
2022-08-30T02:30:43.288Z,15.60
2022-08-30T02:33:17.129Z,15.60
2022-08-30T02:35:52.696Z,15.60
2022-08-30T02:38:28.396Z,15.60
2022-08-30T02:41:04.625Z,15.50
2022-08-30T02:43:39.181Z,15.50
2022-08-30T02:46:13.556Z,15.40
2022-08-30T02:48:48.425Z,15.40
2022-08-30T02:51:23.443Z,15.40
2022-08-30T02:53:56.593Z,15.40
2022-08-30T02:56:31.145Z,15.40
2022-08-30T02:59:04.413Z,15.40
2022-08-30T03:01:39.123Z,15.40
2022-08-30T03:04:13.060Z,15.50
2022-08-30T03:06:46.138Z,15.40
2022-08-30T03:09:19.280Z,15.40
2022-08-30T03:11:53.763Z,15.40
2022-08-30T03:14:28.119Z,15.40
2022-08-30T03:17:01.208Z,15.30
2022-08-30T03:19:36.287Z,15.30
2022-08-30T03:22:09.435Z,15.30
2022-08-30T03:24:42.725Z,15.30
2022-08-30T03:27:17.151Z,15.30
2022-08-30T03:29:50.272Z,15.30
2022-08-30T03:32:24.489Z,15.20
2022-08-30T03:34:57.586Z,15.20
2022-08-30T03:37:30.650Z,15.10
2022-08-30T03:40:05.050Z,15.10
2022-08-30T03:42:43.464Z,15.10
2022-08-30T03:45:19.650Z,15.00
2022-08-30T03:47:52.748Z,15.00
2022-08-30T03:50:26.059Z,14.90
2022-08-30T03:53:01.957Z,14.90
2022-08-30T03:55:35.129Z,14.90
2022-08-30T03:58:09.897Z,15.00
2022-08-30T04:00:43.226Z,15.00
2022-08-30T04:03:16.692Z,14.90
2022-08-30T04:05:49.888Z,14.80
2022-08-30T04:08:23.507Z,14.80
2022-08-30T04:10:56.775Z,14.70
2022-08-30T04:13:31.458Z,14.80
2022-08-30T04:16:05.072Z,14.80
2022-08-30T04:18:38.710Z,14.70
2022-08-30T04:21:14.145Z,14.80
2022-08-30T04:23:47.908Z,14.70
2022-08-30T04:26:21.117Z,14.70
2022-08-30T04:28:56.814Z,14.60
2022-08-30T04:31:30.298Z,14.70
2022-08-30T04:34:03.599Z,14.70
2022-08-30T04:36:36.699Z,14.70
2022-08-30T04:39:09.889Z,14.70
2022-08-30T04:41:42.990Z,14.70
2022-08-30T04:44:19.506Z,14.70
2022-08-30T04:46:53.093Z,14.80
2022-08-30T04:49:26.221Z,14.80
2022-08-30T04:51:59.332Z,14.80
2022-08-30T04:54:32.820Z,14.80
2022-08-30T04:57:07.383Z,14.80
2022-08-30T04:59:41.857Z,14.80
2022-08-30T05:02:15.124Z,14.80
2022-08-30T05:05:02.232Z,14.90
2022-08-30T05:07:36.026Z,14.90
2022-08-30T05:10:11.593Z,15.00
2022-08-30T05:12:44.863Z,15.00
2022-08-30T05:15:19.534Z,15.10
2022-08-30T05:17:52.653Z,15.10
2022-08-30T05:20:25.934Z,15.10
2022-08-30T05:22:59.004Z,15.20
2022-08-30T05:25:38.086Z,15.30
2022-08-30T05:28:11.203Z,15.40
2022-08-30T05:30:45.638Z,15.60
2022-08-30T05:33:18.718Z,15.70
2022-08-30T05:35:51.826Z,15.80
2022-08-30T05:38:24.923Z,15.90
2022-08-30T05:40:58.001Z,16.20
2022-08-30T05:43:32.263Z,16.50
2022-08-30T05:46:10.312Z,16.60
2022-08-30T05:48:43.559Z,16.90
2022-08-30T05:51:19.699Z,17.30
2022-08-30T05:53:54.516Z,17.60
2022-08-30T05:56:31.762Z,18.00
2022-08-30T05:59:07.270Z,18.60
2022-08-30T06:01:44.132Z,19.20
2022-08-30T06:04:17.807Z,19.40
2022-08-30T06:06:51.360Z,19.60
2022-08-30T06:09:24.434Z,19.70
2022-08-30T06:11:57.621Z,19.80
2022-08-30T06:14:30.710Z,19.60
2022-08-30T06:17:05.226Z,19.90
2022-08-30T06:19:38.302Z,20.10
2022-08-30T06:22:14.367Z,20.30
2022-08-30T06:24:57.324Z,20.40
2022-08-30T06:27:31.215Z,20.70
2022-08-30T06:30:08.145Z,20.60
2022-08-30T06:32:42.745Z,20.90
2022-08-30T06:35:15.836Z,21.10
2022-08-30T06:37:49.005Z,21.40
2022-08-30T06:40:22.950Z,21.50
2022-08-30T06:42:56.200Z,21.80
2022-08-30T06:45:30.987Z,22.10
2022-08-30T06:48:05.694Z,21.80
2022-08-30T06:50:39.001Z,21.90
2022-08-30T06:53:12.146Z,22.20
2022-08-30T06:55:45.296Z,22.60
2022-08-30T06:58:18.500Z,22.80
2022-08-30T07:00:51.971Z,22.90
2022-08-30T07:03:27.334Z,22.80
2022-08-30T07:06:00.422Z,22.60
2022-08-30T07:08:33.656Z,22.80
2022-08-30T07:11:07.654Z,22.90
2022-08-30T07:13:40.845Z,22.90
2022-08-30T07:16:15.986Z,23.10
2022-08-30T07:18:54.846Z,23.40
2022-08-30T07:21:34.640Z,23.50
2022-08-30T07:24:10.156Z,23.40
2022-08-30T07:26:46.770Z,22.90
2022-08-30T07:29:21.155Z,23.60
2022-08-30T07:31:54.361Z,23.60
2022-08-30T07:34:28.810Z,24.20
2022-08-30T07:37:01.932Z,24.30
2022-08-30T07:39:41.718Z,23.90
2022-08-30T07:42:19.484Z,23.80
2022-08-30T07:44:56.494Z,24.30
2022-08-30T07:47:29.972Z,24.80
2022-08-30T07:50:05.868Z,25.10
2022-08-30T07:52:39.142Z,25.20
2022-08-30T07:55:12.304Z,24.90
2022-08-30T07:57:45.457Z,24.90
2022-08-30T08:00:18.802Z,25.10
2022-08-30T08:02:51.963Z,25.10
2022-08-30T08:05:26.523Z,25.10
2022-08-30T08:07:59.599Z,25.60
2022-08-30T08:10:33.151Z,25.90
2022-08-30T08:13:08.288Z,26.10
2022-08-30T08:15:42.474Z,26.30
2022-08-30T08:18:15.765Z,26.60
2022-08-30T08:20:50.312Z,26.40
2022-08-30T08:23:27.285Z,26.80
2022-08-30T08:26:00.550Z,26.70
2022-08-30T08:28:33.854Z,26.90
2022-08-30T08:31:16.841Z,26.80
2022-08-30T08:33:50.209Z,26.70
2022-08-30T08:36:25.302Z,26.90
2022-08-30T08:38:58.722Z,27.20
2022-08-30T08:41:51.991Z,27.40
2022-08-30T08:44:42.334Z,27.50
2022-08-30T08:47:19.694Z,27.50
2022-08-30T08:49:57.551Z,27.90
2022-08-30T08:53:04.401Z,28.50
2022-08-30T08:55:44.205Z,28.50
2022-08-30T08:58:24.708Z,28.70
2022-08-30T09:00:59.541Z,28.70
2022-08-30T09:03:32.684Z,28.90
2022-08-30T09:06:35.097Z,29.10
2022-08-30T09:09:09.945Z,29.00
2022-08-30T09:11:44.207Z,29.20
2022-08-30T09:14:24.276Z,29.00
2022-08-30T09:17:07.181Z,29.10
2022-08-30T09:19:45.202Z,29.20
2022-08-30T09:22:28.203Z,29.30
2022-08-30T09:25:08.786Z,28.90
2022-08-30T09:27:46.358Z,29.00
2022-08-30T09:30:24.479Z,29.00
2022-08-30T09:33:02.336Z,28.70
2022-08-30T09:35:41.059Z,29.00
2022-08-30T09:38:22.464Z,29.30
2022-08-30T09:41:01.182Z,29.10
2022-08-30T09:43:37.622Z,28.80
2022-08-30T09:46:16.258Z,28.80
2022-08-30T09:48:51.424Z,28.70
2022-08-30T09:51:43.676Z,28.80
2022-08-30T09:54:25.540Z,28.60
2022-08-30T09:57:12.851Z,28.80
2022-08-30T09:59:54.138Z,28.30
2022-08-30T10:03:06.124Z,28.60
2022-08-30T10:05:58.350Z,28.80
2022-08-30T10:08:47.463Z,28.80
2022-08-30T10:11:33.680Z,28.70
2022-08-30T10:14:41.387Z,29.10
2022-08-30T10:17:29.543Z,29.20
2022-08-30T10:20:21.834Z,29.20
2022-08-30T10:23:06.152Z,28.80
2022-08-30T10:25:49.189Z,28.90
2022-08-30T10:28:34.367Z,29.30
2022-08-30T10:31:34.160Z,29.30
2022-08-30T10:34:16.974Z,29.20
2022-08-30T10:36:59.746Z,28.90
2022-08-30T10:39:41.093Z,28.90
2022-08-30T10:42:22.394Z,28.70
2022-08-30T10:45:07.167Z,28.90
2022-08-30T10:47:49.587Z,29.00
2022-08-30T10:50:33.915Z,28.50
2022-08-30T10:53:16.297Z,28.60
2022-08-30T10:55:57.471Z,28.80
2022-08-30T10:58:33.605Z,28.60
2022-08-30T11:01:31.952Z,28.50
2022-08-30T11:04:34.666Z,28.80
2022-08-30T11:07:23.686Z,28.60
2022-08-30T11:10:42.472Z,28.60
2022-08-30T11:13:27.435Z,28.70
2022-08-30T11:16:07.406Z,28.60
2022-08-30T11:18:51.172Z,28.60
2022-08-30T11:21:36.791Z,29.00
2022-08-30T11:24:15.239Z,29.10
2022-08-30T11:27:03.434Z,29.20
2022-08-30T11:29:44.306Z,28.90
2022-08-30T11:32:58.644Z,28.80
2022-08-30T11:35:48.323Z,28.90
2022-08-30T11:39:03.734Z,29.10
2022-08-30T11:41:44.603Z,29.20
2022-08-30T11:44:34.478Z,29.40
2022-08-30T11:47:41.145Z,29.40
2022-08-30T11:50:21.748Z,29.50
2022-08-30T11:53:06.005Z,29.60
2022-08-30T11:55:58.081Z,29.50
2022-08-30T11:58:48.428Z,29.40
2022-08-30T12:01:51.190Z,29.20
2022-08-30T12:04:39.169Z,28.80
2022-08-30T12:07:14.835Z,28.90
2022-08-30T12:10:06.265Z,28.80
2022-08-30T12:12:55.656Z,28.90
2022-08-30T12:16:00.027Z,29.00
2022-08-30T12:18:45.779Z,28.90
2022-08-30T12:21:43.605Z,28.90
2022-08-30T12:24:27.343Z,28.80
2022-08-30T12:27:05.970Z,28.70
2022-08-30T12:29:53.732Z,28.40
2022-08-30T12:32:29.567Z,28.30
2022-08-30T12:35:07.946Z,28.50
2022-08-30T12:37:43.862Z,28.70
2022-08-30T12:40:25.264Z,28.80
2022-08-30T12:43:03.182Z,28.80
2022-08-30T12:45:50.990Z,28.80
2022-08-30T12:48:26.660Z,28.90
2022-08-30T12:51:03.231Z,29.10
2022-08-30T12:53:45.273Z,29.10
2022-08-30T12:56:47.118Z,28.90
2022-08-30T12:59:55.526Z,29.10
2022-08-30T13:02:52.452Z,29.40
2022-08-30T13:05:53.189Z,29.70
2022-08-30T13:08:37.151Z,29.40
2022-08-30T13:11:29.345Z,29.70
2022-08-30T13:14:30.029Z,29.70
2022-08-30T13:17:14.784Z,29.60
2022-08-30T13:20:01.719Z,29.70
2022-08-30T13:22:38.876Z,29.70
2022-08-30T13:25:14.534Z,29.70
2022-08-30T13:27:50.011Z,29.70
2022-08-30T13:30:25.257Z,29.50
2022-08-30T13:33:02.211Z,29.60
2022-08-30T13:35:38.854Z,29.40
2022-08-30T13:38:13.589Z,29.40
2022-08-30T13:40:48.292Z,29.20
2022-08-30T13:43:22.250Z,29.30
2022-08-30T13:45:57.667Z,29.30
2022-08-30T13:48:32.434Z,29.30
2022-08-30T13:51:09.589Z,29.40
2022-08-30T13:53:53.315Z,29.50
2022-08-30T13:56:32.011Z,29.60
2022-08-30T13:59:06.965Z,29.50
2022-08-30T14:04:38.570Z,29.50
2022-08-30T14:07:16.961Z,29.40
2022-08-30T14:10:30.444Z,29.20
2022-08-30T14:12:53.054Z,29.00
2022-08-30T14:15:28.169Z,29.00
2022-08-30T14:18:03.057Z,29.00
2022-08-30T14:20:38.548Z,28.60
2022-08-30T14:23:15.443Z,28.50
2022-08-30T14:25:50.823Z,28.50
2022-08-30T14:28:26.790Z,28.20
2022-08-30T14:31:01.731Z,28.20
2022-08-30T14:33:36.860Z,28.20
2022-08-30T14:36:15.500Z,28.10
2022-08-30T14:38:52.321Z,28.10
2022-08-30T14:41:27.305Z,28.20
2022-08-30T14:44:02.292Z,28.10
2022-08-30T14:46:37.583Z,28.10
2022-08-30T14:49:13.136Z,28.10
2022-08-30T14:51:48.826Z,28.20
2022-08-30T14:54:27.868Z,28.10
2022-08-30T14:57:03.404Z,28.00
2022-08-30T14:59:38.683Z,28.10
2022-08-30T15:02:14.285Z,28.00
2022-08-30T15:04:49.563Z,28.10
2022-08-30T15:07:24.607Z,28.10
2022-08-30T15:10:01.054Z,28.00
2022-08-30T15:12:36.870Z,28.10
2022-08-30T15:15:13.825Z,28.10
2022-08-30T15:17:48.812Z,28.00
2022-08-30T15:20:23.602Z,27.90
2022-08-30T15:22:58.747Z,27.90
2022-08-30T15:25:35.001Z,27.90
2022-08-30T15:28:15.525Z,28.00
2022-08-30T15:30:52.434Z,28.00
2022-08-30T15:33:27.747Z,28.00
2022-08-30T15:36:05.395Z,27.90
2022-08-30T15:38:40.386Z,27.90
2022-08-30T15:41:17.972Z,27.90
2022-08-30T15:43:53.399Z,28.00
2022-08-30T15:46:33.395Z,28.10
2022-08-30T15:49:10.439Z,28.00
2022-08-30T15:51:47.217Z,28.00
2022-08-30T15:54:25.189Z,28.10
2022-08-30T15:57:02.146Z,28.00
2022-08-30T15:59:40.538Z,27.90
2022-08-30T16:02:15.614Z,28.20
2022-08-30T16:04:51.624Z,28.00
2022-08-30T16:07:27.692Z,27.80
2022-08-30T16:10:02.728Z,27.70
2022-08-30T16:12:39.072Z,27.70
2022-08-30T16:15:14.924Z,27.60
2022-08-30T16:17:49.601Z,27.30
2022-08-30T16:20:24.798Z,27.20
2022-08-30T16:23:00.152Z,27.10
2022-08-30T16:25:39.961Z,27.00
2022-08-30T16:28:17.310Z,26.90
2022-08-30T16:30:52.637Z,26.80
2022-08-30T16:33:27.931Z,26.70
2022-08-30T16:36:02.679Z,26.60
2022-08-30T16:38:37.371Z,26.50
2022-08-30T16:41:18.971Z,26.50
2022-08-30T16:43:57.560Z,26.40
2022-08-30T16:46:33.360Z,26.40
2022-08-30T16:49:08.765Z,26.30
2022-08-30T16:51:44.740Z,26.30
2022-08-30T16:54:19.101Z,26.20
2022-08-30T16:56:55.675Z,26.30
2022-08-30T16:59:31.617Z,26.10
2022-08-30T17:02:06.541Z,26.10
2022-08-30T17:04:42.673Z,26.00
2022-08-30T17:07:21.498Z,25.90
2022-08-30T17:09:57.700Z,25.90
2022-08-30T17:12:33.075Z,25.80
2022-08-30T17:15:11.042Z,25.70
2022-08-30T17:17:45.962Z,25.60
2022-08-30T17:20:20.661Z,25.60
2022-08-30T17:22:55.537Z,25.50
2022-08-30T17:25:33.919Z,25.40
2022-08-30T17:28:09.192Z,25.30
2022-08-30T17:30:45.760Z,25.30
2022-08-30T17:33:20.460Z,25.30
2022-08-30T17:35:56.469Z,25.20
2022-08-30T17:38:31.424Z,25.10
2022-08-30T17:41:08.545Z,25.00
2022-08-30T17:43:43.373Z,24.90
2022-08-30T17:46:21.131Z,24.90
2022-08-30T17:49:01.032Z,24.80
2022-08-30T17:51:37.238Z,24.80
2022-08-30T17:54:14.615Z,24.70
2022-08-30T17:56:49.636Z,24.60
2022-08-30T17:59:29.322Z,24.50
2022-08-30T18:02:11.239Z,24.50
2022-08-30T18:04:46.458Z,24.40
2022-08-30T18:07:22.049Z,24.30
2022-08-30T18:09:57.188Z,24.20
2022-08-30T18:12:33.884Z,24.20
2022-08-30T18:15:12.244Z,24.20
2022-08-30T18:17:49.435Z,24.10
2022-08-30T18:20:26.372Z,24.10
2022-08-30T18:23:01.422Z,24.00
2022-08-30T18:25:35.944Z,23.90
2022-08-30T18:28:12.404Z,23.80
2022-08-30T18:30:47.519Z,23.80
2022-08-30T18:33:24.001Z,23.60
2022-08-30T18:35:59.687Z,23.60
2022-08-30T18:38:35.736Z,23.60
2022-08-30T18:41:14.352Z,23.40
2022-08-30T18:43:54.967Z,23.20
2022-08-30T18:47:31.880Z,23.10
2022-08-30T18:49:38.752Z,23.00
2022-08-30T18:52:14.984Z,23.00
2022-08-30T18:54:52.593Z,22.80
2022-08-30T18:57:27.910Z,22.70
2022-08-30T19:00:03.828Z,22.40
2022-08-30T19:02:39.488Z,22.40
2022-08-30T19:05:22.726Z,22.30
2022-08-30T19:07:58.598Z,22.30
2022-08-30T19:10:33.558Z,22.20
2022-08-30T19:13:07.956Z,22.00
2022-08-30T19:15:42.821Z,21.90
2022-08-30T19:18:17.766Z,21.80
2022-08-30T19:20:53.631Z,21.70
2022-08-30T19:23:34.082Z,21.60
2022-08-30T19:26:09.067Z,21.60
2022-08-30T19:28:46.098Z,21.40
2022-08-30T19:31:20.684Z,21.40
2022-08-30T19:33:55.444Z,21.30
2022-08-30T19:36:32.782Z,21.30
2022-08-30T19:39:07.612Z,21.10
2022-08-30T19:41:42.955Z,21.00
2022-08-30T19:44:18.146Z,21.00
2022-08-30T19:46:54.506Z,20.90
2022-08-30T19:49:30.598Z,20.90
2022-08-30T19:52:08.328Z,20.80
2022-08-30T19:54:42.939Z,20.80
2022-08-30T19:57:17.816Z,20.70
2022-08-30T19:59:52.580Z,20.60
2022-08-30T20:02:27.518Z,20.50
2022-08-30T20:05:04.302Z,20.50
2022-08-30T20:07:40.760Z,20.40
2022-08-30T20:10:20.155Z,20.30
2022-08-30T20:12:54.491Z,20.30
2022-08-30T20:15:29.015Z,20.20
2022-08-30T20:18:06.249Z,20.10
2022-08-30T20:20:50.225Z,20.00
2022-08-30T20:23:26.798Z,19.90
2022-08-30T20:26:02.334Z,19.90
2022-08-30T20:28:37.254Z,19.80
2022-08-30T20:31:12.470Z,19.80
2022-08-30T20:33:46.903Z,19.80
2022-08-30T20:36:21.305Z,19.70
2022-08-30T20:38:56.948Z,19.60
2022-08-30T20:41:31.694Z,19.60
2022-08-30T20:44:06.263Z,19.60
2022-08-30T20:46:47.390Z,19.50
2022-08-30T20:49:21.869Z,19.50
2022-08-30T20:51:56.645Z,19.40
2022-08-30T20:54:32.686Z,19.40
2022-08-30T20:57:07.869Z,19.40
2022-08-30T20:59:42.699Z,19.40
2022-08-30T21:02:18.041Z,19.40
2022-08-30T21:04:52.538Z,19.40
2022-08-30T21:07:26.937Z,19.40
2022-08-30T21:10:03.372Z,19.30
2022-08-30T21:12:37.818Z,19.30
2022-08-30T21:15:36.473Z,19.40
2022-08-30T21:18:08.870Z,19.40
2022-08-30T21:20:43.764Z,19.40
2022-08-30T21:23:18.177Z,19.50
2022-08-30T21:25:54.079Z,19.40
2022-08-30T21:28:28.878Z,19.30
2022-08-30T21:31:08.923Z,19.20
2022-08-30T21:33:43.638Z,19.10
2022-08-30T21:36:35.957Z,19.10
2022-08-30T21:39:10.985Z,19.10
2022-08-30T21:41:47.031Z,19.20
2022-08-30T21:44:24.399Z,19.10
2022-08-30T21:46:59.170Z,19.00
2022-08-30T21:49:33.864Z,18.90
2022-08-30T21:52:08.341Z,18.80
2022-08-30T21:54:42.561Z,18.80
2022-08-30T21:57:18.782Z,18.80
2022-08-30T21:59:53.403Z,18.70
2022-08-30T22:02:29.093Z,18.80
2022-08-30T22:05:03.533Z,18.70
2022-08-30T22:07:37.885Z,18.70
2022-08-30T22:10:14.834Z,18.80
2022-08-30T22:12:50.882Z,18.80
2022-08-30T22:15:26.955Z,18.70
2022-08-30T22:18:02.150Z,18.70
2022-08-30T22:20:37.049Z,18.70
2022-08-30T22:23:12.088Z,18.70
2022-08-30T22:25:51.841Z,18.80
2022-08-30T22:28:27.864Z,18.80
2022-08-30T22:31:04.317Z,18.80
2022-08-30T22:33:39.511Z,18.90
2022-08-30T22:36:19.041Z,18.90
2022-08-30T22:38:55.631Z,19.10
2022-08-30T22:41:34.971Z,19.00
2022-08-30T22:44:10.787Z,19.00
2022-08-30T22:46:45.356Z,18.90
2022-08-30T22:49:19.868Z,19.00
2022-08-30T22:51:54.191Z,19.00
2022-08-30T22:54:29.226Z,19.10
2022-08-30T22:57:04.645Z,19.20
2022-08-30T22:59:40.883Z,19.20
2022-08-30T23:02:15.339Z,19.20
2022-08-30T23:04:50.205Z,19.20
2022-08-30T23:07:24.808Z,19.20
2022-08-30T23:09:59.543Z,19.20
2022-08-30T23:12:37.124Z,19.20
2022-08-30T23:15:16.513Z,19.20
2022-08-30T23:17:51.190Z,19.10
2022-08-30T23:20:25.924Z,19.20
2022-08-30T23:22:58.933Z,19.20
2022-08-30T23:25:52.437Z,19.20
2022-08-30T23:28:44.235Z,19.30
2022-08-30T23:31:37.239Z,19.30
2022-08-30T23:34:28.445Z,19.30
2022-08-30T23:37:20.186Z,19.30
2022-08-30T23:40:12.080Z,19.30
2022-08-30T23:43:05.880Z,19.20
2022-08-30T23:45:57.356Z,19.20
2022-08-30T23:48:52.131Z,19.20
2022-08-30T23:51:44.148Z,19.20
2022-08-30T23:54:35.422Z,19.20
2022-08-30T23:57:27.022Z,19.20
